createdAt,value
2017-12-26T00:00:46.663Z,77.22
2017-12-26T00:01:46.651Z,77.22
2017-12-26T00:02:46.956Z,76.84
2017-12-26T00:03:46.957Z,76.84
2017-12-26T00:04:46.974Z,76.84
2017-12-26T00:05:46.706Z,76.84
2017-12-26T00:06:47.013Z,77.5
2017-12-26T00:07:46.759Z,77.12
2017-12-26T00:08:47.011Z,76.65
2017-12-26T00:09:47.043Z,77.31
2017-12-26T00:10:46.774Z,77.31
2017-12-26T00:11:47.057Z,76.84
2017-12-26T00:12:46.861Z,77.12
2017-12-26T00:13:47.107Z,76.84
2017-12-26T00:14:47.089Z,77.31
2017-12-26T00:15:46.843Z,77.5
2017-12-26T00:16:47.111Z,77.03
2017-12-26T00:17:47.137Z,76.46
2017-12-26T00:18:47.134Z,77.12
2017-12-26T00:19:47.146Z,77.31
2017-12-26T00:20:47.159Z,76.84
2017-12-26T00:21:46.944Z,77.59
2017-12-26T00:22:47.191Z,76.84
2017-12-26T00:23:46.951Z,77.03
2017-12-26T00:24:47.222Z,77.12
2017-12-26T00:25:46.987Z,77.4
2017-12-26T00:26:46.991Z,77.31
2017-12-26T00:27:47.054Z,77.03
2017-12-26T00:28:47.270Z,76.55
2017-12-26T00:29:47.042Z,76.65
2017-12-26T00:30:47.294Z,77.22
2017-12-26T00:31:47.323Z,77.12
2017-12-26T00:32:47.323Z,77.12
2017-12-26T00:33:47.375Z,77.22
2017-12-26T00:34:47.354Z,76.65
2017-12-26T00:35:47.111Z,77.22
2017-12-26T00:36:47.377Z,77.5
2017-12-26T00:37:47.494Z,76.99
2017-12-26T00:38:47.417Z,77.03
2017-12-26T00:39:47.421Z,76.74
2017-12-26T00:40:47.448Z,76.8
2017-12-26T00:41:47.447Z,77.03
2017-12-26T00:42:47.206Z,77.03
2017-12-26T00:43:47.475Z,77.18
2017-12-26T00:44:47.497Z,77.59
2017-12-26T00:45:47.499Z,77.5
2017-12-26T00:46:47.513Z,77.18
2017-12-26T00:47:47.528Z,77.08
2017-12-26T00:48:47.547Z,77.08
2017-12-26T00:49:47.556Z,77.56
2017-12-26T00:50:47.322Z,77.18
2017-12-26T00:51:47.632Z,76.99
2017-12-26T00:52:47.594Z,76.99
2017-12-26T00:53:47.608Z,76.61
2017-12-26T00:54:47.676Z,77.08
2017-12-26T00:55:47.383Z,77.12
2017-12-26T00:56:47.654Z,76.84
2017-12-26T00:57:47.668Z,77.59
2017-12-26T00:58:47.678Z,77.03
2017-12-26T00:59:47.440Z,77.03
2017-12-26T01:00:47.702Z,77.65
2017-12-26T01:01:47.714Z,77.69
2017-12-26T01:02:47.730Z,77.5
2017-12-26T01:03:47.747Z,76.99
2017-12-26T01:04:47.504Z,77.03
2017-12-26T01:05:47.769Z,76.93
2017-12-26T01:06:47.786Z,77.12
2017-12-26T01:07:47.811Z,77.03
2017-12-26T01:08:47.809Z,76.93
2017-12-26T01:09:47.825Z,77.4
2017-12-26T01:10:47.837Z,77.12
2017-12-26T01:11:47.854Z,76.84
2017-12-26T01:12:47.612Z,77.12
2017-12-26T01:13:47.626Z,77.5
2017-12-26T01:14:47.891Z,77.03
2017-12-26T01:15:47.650Z,77.12
2017-12-26T01:16:47.667Z,77.03
2017-12-26T01:17:47.681Z,76.55
2017-12-26T01:18:47.697Z,76.27
2017-12-26T01:19:47.962Z,76.46
2017-12-26T01:20:47.720Z,76.93
2017-12-26T01:21:47.983Z,76.61
2017-12-26T01:22:47.993Z,76.61
2017-12-26T01:23:47.756Z,76.99
2017-12-26T01:24:47.770Z,77.08
2017-12-26T01:25:47.781Z,76.8
2017-12-26T01:26:48.057Z,76.89
2017-12-26T01:27:47.815Z,76.61
2017-12-26T01:28:48.073Z,76.8
2017-12-26T01:29:48.090Z,77.27
2017-12-26T01:30:48.102Z,77.84
2017-12-26T01:31:47.860Z,77.75
2017-12-26T01:32:47.876Z,77.56
2017-12-26T01:33:47.888Z,77.56
2017-12-26T01:34:47.923Z,77.37
2017-12-26T01:35:48.169Z,77.46
2017-12-26T01:36:48.181Z,77.84
2017-12-26T01:37:47.943Z,77.27
2017-12-26T01:38:48.206Z,77.27
2017-12-26T01:39:48.227Z,77.56
2017-12-26T01:40:47.984Z,77.75
2017-12-26T01:41:48.254Z,77.94
2017-12-26T01:42:48.260Z,78.13
2017-12-26T01:43:48.022Z,78.03
2017-12-26T01:44:48.288Z,77.46
2017-12-26T01:45:48.303Z,77.08
2017-12-26T01:46:48.312Z,77.08
2017-12-26T01:47:48.074Z,76.8
2017-12-26T01:48:48.340Z,77.56
2017-12-26T01:49:48.353Z,77.65
2017-12-26T01:50:48.375Z,76.61
2017-12-26T01:51:48.379Z,76.89
2017-12-26T01:52:48.393Z,77.08
2017-12-26T01:53:48.409Z,77.46
2017-12-26T01:54:48.164Z,77.27
2017-12-26T01:55:48.176Z,77.84
2017-12-26T01:56:48.445Z,77.65
2017-12-26T01:57:48.457Z,77.56
2017-12-26T01:58:48.468Z,76.61
2017-12-26T01:59:48.229Z,77.46
2017-12-26T02:00:48.501Z,76.61
2017-12-26T02:01:48.527Z,77.37
2017-12-26T02:02:48.544Z,77.46
2017-12-26T02:03:48.537Z,77.18
2017-12-26T02:04:48.551Z,76.61
2017-12-26T02:05:48.309Z,77.18
2017-12-26T02:06:48.576Z,77.27
2017-12-26T02:07:48.586Z,77.18
2017-12-26T02:08:48.600Z,76.89
2017-12-26T02:09:48.611Z,77.56
2017-12-26T02:10:48.626Z,77.56
2017-12-26T02:11:48.385Z,76.99
2017-12-26T02:12:48.653Z,76.99
2017-12-26T02:13:48.665Z,76.8
2017-12-26T02:14:48.676Z,76.7
2017-12-26T02:15:48.442Z,76.8
2017-12-26T02:16:48.450Z,76.51
2017-12-26T02:17:48.717Z,76.8
2017-12-26T02:18:48.729Z,76.8
2017-12-26T02:19:48.491Z,76.89
2017-12-26T02:20:48.755Z,77.08
2017-12-26T02:21:48.516Z,77.75
2017-12-26T02:22:48.529Z,77.65
2017-12-26T02:23:48.796Z,77.65
2017-12-26T02:24:48.804Z,77.84
2017-12-26T02:25:48.566Z,77.84
2017-12-26T02:26:48.844Z,77.27
2017-12-26T02:27:48.594Z,76.99
2017-12-26T02:28:48.607Z,78.03
2017-12-26T02:29:48.874Z,77.56
2017-12-26T02:30:48.888Z,77.08
2017-12-26T02:31:48.900Z,76.61
2017-12-26T02:32:48.657Z,77.27
2017-12-26T02:33:48.928Z,76.89
2017-12-26T02:34:48.942Z,77.08
2017-12-26T02:35:48.955Z,77.46
2017-12-26T02:36:48.965Z,77.75
2017-12-26T02:37:48.725Z,76.99
2017-12-26T02:38:48.990Z,76.8
2017-12-26T02:39:49.003Z,77.37
2017-12-26T02:40:49.021Z,76.99
2017-12-26T02:41:49.031Z,76.8
2017-12-26T02:42:48.787Z,76.89
2017-12-26T02:43:48.849Z,77.46
2017-12-26T02:44:48.813Z,76.61
2017-12-26T02:45:49.098Z,76.23
2017-12-26T02:46:49.091Z,76.8
2017-12-26T02:47:48.857Z,76.7
2017-12-26T02:48:49.126Z,76.61
2017-12-26T02:49:48.886Z,76.7
2017-12-26T02:50:49.147Z,76.42
2017-12-26T02:51:48.908Z,76.89
2017-12-26T02:52:48.921Z,76.7
2017-12-26T02:53:49.186Z,76.61
2017-12-26T02:54:49.202Z,76.7
2017-12-26T02:55:48.959Z,77.08
2017-12-26T02:56:49.228Z,76.61
2017-12-26T02:57:48.984Z,76.89
2017-12-26T02:58:49.051Z,77.46
2017-12-26T02:59:49.264Z,76.99
2017-12-26T03:00:49.275Z,76.8
2017-12-26T03:01:49.292Z,77.08
2017-12-26T03:02:49.051Z,77.08
2017-12-26T03:03:49.063Z,77.08
2017-12-26T03:04:49.081Z,76.89
2017-12-26T03:05:49.342Z,76.7
2017-12-26T03:06:49.102Z,76.99
2017-12-26T03:07:49.115Z,76.51
2017-12-26T03:08:49.242Z,76.61
2017-12-26T03:09:49.394Z,77.37
2017-12-26T03:10:49.151Z,76.89
2017-12-26T03:11:49.414Z,77.56
2017-12-26T03:12:49.429Z,77.27
2017-12-26T03:13:49.237Z,76.8
2017-12-26T03:14:49.456Z,76.7
2017-12-26T03:15:49.469Z,77.27
2017-12-26T03:16:49.229Z,77.56
2017-12-26T03:17:49.504Z,77.56
2017-12-26T03:18:49.517Z,76.99
2017-12-26T03:19:49.528Z,77.27
2017-12-26T03:20:49.540Z,77.56
2017-12-26T03:21:49.555Z,77.46
2017-12-26T03:22:49.315Z,76.99
2017-12-26T03:23:49.578Z,77.27
2017-12-26T03:24:49.341Z,77.27
2017-12-26T03:25:49.607Z,76.8
2017-12-26T03:26:49.368Z,76.8
2017-12-26T03:27:49.642Z,77.56
2017-12-26T03:28:49.692Z,76.61
2017-12-26T03:29:49.404Z,77.08
2017-12-26T03:30:49.417Z,76.8
2017-12-26T03:31:49.432Z,77.37
2017-12-26T03:32:49.696Z,76.99
2017-12-26T03:33:49.460Z,77.08
2017-12-26T03:34:49.723Z,76.99
2017-12-26T03:35:49.739Z,76.32
2017-12-26T03:36:49.510Z,77.08
2017-12-26T03:37:49.765Z,77.18
2017-12-26T03:38:49.777Z,77.08
2017-12-26T03:39:49.790Z,77.27
2017-12-26T03:40:49.802Z,77.27
2017-12-26T03:41:49.563Z,76.84
2017-12-26T03:42:49.827Z,76.27
2017-12-26T03:43:49.898Z,76.55
2017-12-26T03:44:49.603Z,76.8
2017-12-26T03:45:49.617Z,76.8
2017-12-26T03:46:49.884Z,76.32
2017-12-26T03:47:49.646Z,76.32
2017-12-26T03:48:49.908Z,76.7
2017-12-26T03:49:49.923Z,76.46
2017-12-26T03:50:49.939Z,76.74
2017-12-26T03:51:49.697Z,76.04
2017-12-26T03:52:49.710Z,76.61
2017-12-26T03:53:49.980Z,77.08
2017-12-26T03:54:49.739Z,77.18
2017-12-26T03:55:50.006Z,76.14
2017-12-26T03:56:49.765Z,76.14
2017-12-26T03:57:50.030Z,76.65
2017-12-26T03:58:50.095Z,76.36
2017-12-26T03:59:50.059Z,75.95
2017-12-26T04:00:49.817Z,76.23
2017-12-26T04:01:49.830Z,76.14
2017-12-26T04:02:50.096Z,76.42
2017-12-26T04:03:50.208Z,76.99
2017-12-26T04:04:50.134Z,76.7
2017-12-26T04:05:50.139Z,76.8
2017-12-26T04:06:50.151Z,76.55
2017-12-26T04:07:50.170Z,76.89
2017-12-26T04:08:50.175Z,76.74
2017-12-26T04:09:50.194Z,76.42
2017-12-26T04:10:50.202Z,76.7
2017-12-26T04:11:49.968Z,77.31
2017-12-26T04:12:50.231Z,77.03
2017-12-26T04:13:50.041Z,76.42
2017-12-26T04:14:50.004Z,76.51
2017-12-26T04:15:50.018Z,77.03
2017-12-26T04:16:50.284Z,76.99
2017-12-26T04:17:50.294Z,77.31
2017-12-26T04:18:50.309Z,76.46
2017-12-26T04:19:50.073Z,76.84
2017-12-26T04:20:50.082Z,76.8
2017-12-26T04:21:50.367Z,76.65
2017-12-26T04:22:50.364Z,77.22
2017-12-26T04:23:50.377Z,76.84
2017-12-26T04:24:50.389Z,76.61
2017-12-26T04:25:50.415Z,76.84
2017-12-26T04:26:50.421Z,76.61
2017-12-26T04:27:50.431Z,76.7
2017-12-26T04:28:50.493Z,76.61
2017-12-26T04:29:50.465Z,77.08
2017-12-26T04:30:50.469Z,76.55
2017-12-26T04:31:50.484Z,77.12
2017-12-26T04:32:50.494Z,76.74
2017-12-26T04:33:50.256Z,76.93
2017-12-26T04:34:50.527Z,76.08
2017-12-26T04:35:50.540Z,75.89
2017-12-26T04:36:50.548Z,76.46
2017-12-26T04:37:50.562Z,75.6
2017-12-26T04:38:50.579Z,75.32
2017-12-26T04:39:50.590Z,75.32
2017-12-26T04:40:50.617Z,75.32
2017-12-26T04:41:50.617Z,75.51
2017-12-26T04:42:50.628Z,74.95
2017-12-26T04:43:50.439Z,74.66
2017-12-26T04:44:50.660Z,74.85
2017-12-26T04:45:50.667Z,74.37
2017-12-26T04:46:50.680Z,74.47
2017-12-26T04:47:50.700Z,74.18
2017-12-26T04:48:50.706Z,73.99
2017-12-26T04:49:50.720Z,74.09
2017-12-26T04:50:50.729Z,73.99
2017-12-26T04:51:50.750Z,73.99
2017-12-26T04:52:50.760Z,74.18
2017-12-26T04:53:50.772Z,74.28
2017-12-26T04:54:50.534Z,73.99
2017-12-26T04:55:50.801Z,74.09
2017-12-26T04:56:50.562Z,73.52
2017-12-26T04:57:50.575Z,73.8
2017-12-26T04:58:50.642Z,73.61
2017-12-26T04:59:50.603Z,73.43
2017-12-26T05:00:50.869Z,73.61
2017-12-26T05:01:50.886Z,73.52
2017-12-26T05:02:50.896Z,73.43
2017-12-26T05:03:50.909Z,73.99
2017-12-26T05:04:50.923Z,73.61
2017-12-26T05:05:50.686Z,73.52
2017-12-26T05:06:50.700Z,73.52
2017-12-26T05:07:50.966Z,73.43
2017-12-26T05:08:50.976Z,73.61
2017-12-26T05:09:50.740Z,73.52
2017-12-26T05:10:50.754Z,73.33
2017-12-26T05:11:50.769Z,73.43
2017-12-26T05:12:51.035Z,73.24
2017-12-26T05:13:50.844Z,73.52
2017-12-26T05:14:51.060Z,73.05
2017-12-26T05:15:51.071Z,72.86
2017-12-26T05:16:51.103Z,73.33
2017-12-26T05:17:51.101Z,73.61
2017-12-26T05:18:51.121Z,72.96
2017-12-26T05:19:51.129Z,73.61
2017-12-26T05:20:51.154Z,73.61
2017-12-26T05:21:51.155Z,73.43
2017-12-26T05:22:51.170Z,73.43
2017-12-26T05:23:51.184Z,73.05
2017-12-26T05:24:51.200Z,72.86
2017-12-26T05:25:51.216Z,72.86
2017-12-26T05:26:51.226Z,72.77
2017-12-26T05:27:51.239Z,73.24
2017-12-26T05:28:51.300Z,72.86
2017-12-26T05:29:51.010Z,72.96
2017-12-26T05:30:51.281Z,72.96
2017-12-26T05:31:51.290Z,73.14
2017-12-26T05:32:51.308Z,73.33
2017-12-26T05:33:51.348Z,72.86
2017-12-26T05:34:51.078Z,73.24
2017-12-26T05:35:51.091Z,72.86
2017-12-26T05:36:51.358Z,73.24
2017-12-26T05:37:51.373Z,73.43
2017-12-26T05:38:51.485Z,73.33
2017-12-26T05:39:51.398Z,73.33
2017-12-26T05:40:51.162Z,73.24
2017-12-26T05:41:51.427Z,73.14
2017-12-26T05:42:51.442Z,73.61
2017-12-26T05:43:51.254Z,73.33
2017-12-26T05:44:51.468Z,73.24
2017-12-26T05:45:51.484Z,73.05
2017-12-26T05:46:51.243Z,73.33
2017-12-26T05:47:51.255Z,73.33
2017-12-26T05:48:51.526Z,73.33
2017-12-26T05:49:51.534Z,73.33
2017-12-26T05:50:51.550Z,73.52
2017-12-26T05:51:51.564Z,73.33
2017-12-26T05:52:51.590Z,73.61
2017-12-26T05:53:51.591Z,73.52
2017-12-26T05:54:51.607Z,73.24
2017-12-26T05:55:51.622Z,73.43
2017-12-26T05:56:51.634Z,73.61
2017-12-26T05:57:51.647Z,73.99
2017-12-26T05:58:51.713Z,73.52
2017-12-26T05:59:51.423Z,73.43
2017-12-26T06:00:51.686Z,73.71
2017-12-26T06:01:51.700Z,73.14
2017-12-26T06:02:51.717Z,73.14
2017-12-26T06:03:51.734Z,73.61
2017-12-26T06:04:51.745Z,73.43
2017-12-26T06:05:51.759Z,73.99
2017-12-26T06:06:51.771Z,72.99
2017-12-26T06:07:51.785Z,72.86
2017-12-26T06:08:51.799Z,72.86
2017-12-26T06:09:51.822Z,73.52
2017-12-26T06:10:51.829Z,73.8
2017-12-26T06:11:51.841Z,73.65
2017-12-26T06:12:51.600Z,72.77
2017-12-26T06:13:52.021Z,72.99
2017-12-26T06:14:51.883Z,72.71
2017-12-26T06:15:51.896Z,73.08
2017-12-26T06:16:51.912Z,73.8
2017-12-26T06:17:51.674Z,72.99
2017-12-26T06:18:51.685Z,72.8
2017-12-26T06:19:51.957Z,72.71
2017-12-26T06:20:51.715Z,73.08
2017-12-26T06:21:51.980Z,72.71
2017-12-26T06:22:51.995Z,72.33
2017-12-26T06:23:52.008Z,73.27
2017-12-26T06:24:52.023Z,73.18
2017-12-26T06:25:51.782Z,73.56
2017-12-26T06:26:52.050Z,73.27
2017-12-26T06:27:51.814Z,74.41
2017-12-26T06:28:52.128Z,73.75
2017-12-26T06:29:52.092Z,73.37
2017-12-26T06:30:52.110Z,73.27
2017-12-26T06:31:52.123Z,72.8
2017-12-26T06:32:51.884Z,73.08
2017-12-26T06:33:52.151Z,73.65
2017-12-26T06:34:51.914Z,73.46
2017-12-26T06:35:52.183Z,73.37
2017-12-26T06:36:52.193Z,73.27
2017-12-26T06:37:52.205Z,72.71
2017-12-26T06:38:52.241Z,73.08
2017-12-26T06:39:52.270Z,73.46
2017-12-26T06:40:52.248Z,72.71
2017-12-26T06:41:52.262Z,73.46
2017-12-26T06:42:52.279Z,73.18
2017-12-26T06:43:52.108Z,73.18
2017-12-26T06:44:52.055Z,73.46
2017-12-26T06:45:52.069Z,73.56
2017-12-26T06:46:52.337Z,73.65
2017-12-26T06:47:52.095Z,73.37
2017-12-26T06:48:52.111Z,72.71
2017-12-26T06:49:52.380Z,73.27
2017-12-26T06:50:52.140Z,73.18
2017-12-26T06:51:52.407Z,72.8
2017-12-26T06:52:52.419Z,73.46
2017-12-26T06:53:52.431Z,73.94
2017-12-26T06:54:52.448Z,72.61
2017-12-26T06:55:52.462Z,72.8
2017-12-26T06:56:52.225Z,72.71
2017-12-26T06:57:52.530Z,73.27
2017-12-26T06:58:52.307Z,72.99
2017-12-26T06:59:52.521Z,72.71
2017-12-26T07:00:52.533Z,72.61
2017-12-26T07:01:52.293Z,72.52
2017-12-26T07:02:52.566Z,72.89
2017-12-26T07:03:52.320Z,73.65
2017-12-26T07:04:52.795Z,73.18
2017-12-26T07:05:52.603Z,72.33
2017-12-26T07:06:52.620Z,73.08
2017-12-26T07:07:52.380Z,72.99
2017-12-26T07:08:52.391Z,73.27
2017-12-26T07:09:52.664Z,73.46
2017-12-26T07:10:52.675Z,73.94
2017-12-26T07:11:52.687Z,74.03
2017-12-26T07:12:52.700Z,73.37
2017-12-26T07:13:52.764Z,72.8
2017-12-26T07:14:52.478Z,73.27
2017-12-26T07:15:52.753Z,74.03
2017-12-26T07:16:52.764Z,73.84
2017-12-26T07:17:52.521Z,73.37
2017-12-26T07:18:52.789Z,73.37
2017-12-26T07:19:52.818Z,73.65
2017-12-26T07:20:52.814Z,73.65
2017-12-26T07:21:52.831Z,72.71
2017-12-26T07:22:52.849Z,72.8
2017-12-26T07:23:53.063Z,72.89
2017-12-26T07:24:52.871Z,72.42
2017-12-26T07:25:52.634Z,72.42
2017-12-26T07:26:52.666Z,73.18
2017-12-26T07:27:52.913Z,73.18
2017-12-26T07:28:52.979Z,73.18
2017-12-26T07:29:52.945Z,73.56
2017-12-26T07:30:52.957Z,73.18
2017-12-26T07:31:52.973Z,73.56
2017-12-26T07:32:53.010Z,72.8
2017-12-26T07:33:53.007Z,72.99
2017-12-26T07:34:52.774Z,72.61
2017-12-26T07:35:53.028Z,72.33
2017-12-26T07:36:53.042Z,72.23
2017-12-26T07:37:53.053Z,72.04
2017-12-26T07:38:52.816Z,72.33
2017-12-26T07:39:53.082Z,72.52
2017-12-26T07:40:53.098Z,72.14
2017-12-26T07:41:53.114Z,72.23
2017-12-26T07:42:53.126Z,72.23
2017-12-26T07:43:53.189Z,72.04
2017-12-26T07:44:52.905Z,71.85
2017-12-26T07:45:52.915Z,71.66
2017-12-26T07:46:53.216Z,71.66
2017-12-26T07:47:53.197Z,71.38
2017-12-26T07:48:53.217Z,71.47
2017-12-26T07:49:53.225Z,71.47
2017-12-26T07:50:52.992Z,71.09
2017-12-26T07:51:53.255Z,71.57
2017-12-26T07:52:53.272Z,71.76
2017-12-26T07:53:53.035Z,70.43
2017-12-26T07:54:53.303Z,70.81
2017-12-26T07:55:53.332Z,70.43
2017-12-26T07:56:53.331Z,70.43
2017-12-26T07:57:53.342Z,70.47
2017-12-26T07:58:53.430Z,69.48
2017-12-26T07:59:53.121Z,69.52
2017-12-26T08:00:53.390Z,69.67
2017-12-26T08:01:53.402Z,69.52
2017-12-26T08:02:53.416Z,70.56
2017-12-26T08:03:53.435Z,71.13
2017-12-26T08:04:53.447Z,71.13
2017-12-26T08:05:53.461Z,70.47
2017-12-26T08:06:53.477Z,70.84
2017-12-26T08:07:53.496Z,70.37
2017-12-26T08:08:53.251Z,70.18
2017-12-26T08:09:53.519Z,70.09
2017-12-26T08:10:53.533Z,69.52
2017-12-26T08:11:53.545Z,69.42
2017-12-26T08:12:53.562Z,70.84
2017-12-26T08:13:53.323Z,71.13
2017-12-26T08:14:53.338Z,70.84
2017-12-26T08:15:53.654Z,69.9
2017-12-26T08:16:53.621Z,70.28
2017-12-26T08:17:53.386Z,70.84
2017-12-26T08:18:53.655Z,70.75
2017-12-26T08:19:53.671Z,71.03
2017-12-26T08:20:53.684Z,70.94
2017-12-26T08:21:53.448Z,69.52
2017-12-26T08:22:53.739Z,69.23
2017-12-26T08:23:53.484Z,70.56
2017-12-26T08:24:53.754Z,70.47
2017-12-26T08:25:53.504Z,69.52
2017-12-26T08:26:53.521Z,69.61
2017-12-26T08:27:53.540Z,70.37
2017-12-26T08:28:53.805Z,70.84
2017-12-26T08:29:53.817Z,70.69
2017-12-26T08:30:53.630Z,70.21
2017-12-26T08:31:53.858Z,69.84
2017-12-26T08:32:53.870Z,69.74
2017-12-26T08:33:53.626Z,69.84
2017-12-26T08:34:53.642Z,69.55
2017-12-26T08:35:53.907Z,70.31
2017-12-26T08:36:53.668Z,69.46
2017-12-26T08:37:53.936Z,70.12
2017-12-26T08:38:53.954Z,69.55
2017-12-26T08:39:53.971Z,69.36
2017-12-26T08:40:53.986Z,68.7
2017-12-26T08:41:53.999Z,68.23
2017-12-26T08:42:53.762Z,68.51
2017-12-26T08:43:54.031Z,68.51
2017-12-26T08:44:53.792Z,68.41
2017-12-26T08:45:54.112Z,68.41
2017-12-26T08:46:54.076Z,68.6
2017-12-26T08:47:54.094Z,68.23
2017-12-26T08:48:54.108Z,67.46
2017-12-26T08:49:53.869Z,67.27
2017-12-26T08:50:53.887Z,66.74
2017-12-26T08:51:54.165Z,65.41
2017-12-26T08:52:54.175Z,63.98
2017-12-26T08:53:53.930Z,63.79
2017-12-26T08:54:53.962Z,63.7
2017-12-26T08:55:53.959Z,63.6
2017-12-26T08:56:54.228Z,61.9
2017-12-26T08:57:54.248Z,62.5
2017-12-26T08:58:54.261Z,61.93
2017-12-26T08:59:54.274Z,60.79
2017-12-26T09:00:54.441Z,60.79
2017-12-26T09:01:54.311Z,59.93
2017-12-26T09:02:54.324Z,59.27
2017-12-26T09:03:54.352Z,57.65
2017-12-26T09:04:54.354Z,57.37
2017-12-26T09:05:54.376Z,57.18
2017-12-26T09:06:54.389Z,56.51
2017-12-26T09:07:54.403Z,56.89
2017-12-26T09:08:54.417Z,56.63
2017-12-26T09:09:54.182Z,55.78
2017-12-26T09:10:54.452Z,56.16
2017-12-26T09:11:54.470Z,55.69
2017-12-26T09:12:54.231Z,55.21
2017-12-26T09:13:54.247Z,54.45
2017-12-26T09:14:54.262Z,53.78
2017-12-26T09:15:54.590Z,54.67
2017-12-26T09:16:54.549Z,54.38
2017-12-26T09:17:54.629Z,53.63
2017-12-26T09:18:54.580Z,53.43
2017-12-26T09:19:54.609Z,52.86
2017-12-26T09:20:54.363Z,52.93
2017-12-26T09:21:54.632Z,53.12
2017-12-26T09:22:54.396Z,52.58
2017-12-26T09:23:54.667Z,52.29
2017-12-26T09:24:54.683Z,52.76
2017-12-26T09:25:54.700Z,52.48
2017-12-26T09:26:54.718Z,52.86
2017-12-26T09:27:54.479Z,52.58
2017-12-26T09:28:54.749Z,52.2
2017-12-26T09:29:54.780Z,51.34
2017-12-26T09:30:54.581Z,51.34
2017-12-26T09:31:54.546Z,51.43
2017-12-26T09:32:54.816Z,50.96
2017-12-26T09:33:54.579Z,50.87
2017-12-26T09:34:54.597Z,50.77
2017-12-26T09:35:54.865Z,50.77
2017-12-26T09:36:54.883Z,50.96
2017-12-26T09:37:54.902Z,50.96
2017-12-26T09:38:54.918Z,50.68
2017-12-26T09:39:54.936Z,50.58
2017-12-26T09:40:54.971Z,51.06
2017-12-26T09:41:54.969Z,50.87
2017-12-26T09:42:54.988Z,51.25
2017-12-26T09:43:55.004Z,50.96
2017-12-26T09:44:55.018Z,51.25
2017-12-26T09:45:54.839Z,50.58
2017-12-26T09:46:55.054Z,50.77
2017-12-26T09:47:55.071Z,50.32
2017-12-26T09:48:55.090Z,49.37
2017-12-26T09:49:55.106Z,49.27
2017-12-26T09:50:54.868Z,51.27
2017-12-26T09:51:55.145Z,50.89
2017-12-26T09:52:55.155Z,50.32
2017-12-26T09:53:54.923Z,48.73
2017-12-26T09:54:54.937Z,47.97
2017-12-26T09:55:55.208Z,47.97
2017-12-26T09:56:55.227Z,47.97
2017-12-26T09:57:55.244Z,47.97
2017-12-26T09:58:55.012Z,47.39
2017-12-26T09:59:55.280Z,46.06
2017-12-26T10:00:55.347Z,45.32
2017-12-26T10:01:55.314Z,45.14
2017-12-26T10:02:55.077Z,45.32
2017-12-26T10:03:55.097Z,45.42
2017-12-26T10:04:55.370Z,45.32
2017-12-26T10:05:55.402Z,44.94
2017-12-26T10:06:55.409Z,44.56
2017-12-26T10:07:55.442Z,45.44
2017-12-26T10:08:55.196Z,44.39
2017-12-26T10:09:55.475Z,44.2
2017-12-26T10:10:55.492Z,44.13
2017-12-26T10:11:55.508Z,42.51
2017-12-26T10:12:55.532Z,42.22
2017-12-26T10:13:55.551Z,43.58
2017-12-26T10:14:55.571Z,42.15
2017-12-26T10:15:55.409Z,43.29
2017-12-26T10:16:55.363Z,43.32
2017-12-26T10:17:55.382Z,42.38
2017-12-26T10:18:55.858Z,40.76
2017-12-26T10:19:55.680Z,40.76
2017-12-26T10:20:55.706Z,42.11
2017-12-26T10:21:55.723Z,41.45
2017-12-26T10:22:55.751Z,39.37
2017-12-26T10:23:55.523Z,40.13
2017-12-26T10:24:55.797Z,37.85
2017-12-26T10:25:55.873Z,36.52
2017-12-26T10:26:55.849Z,36.99
2017-12-26T10:27:55.621Z,36.35
2017-12-26T10:28:55.902Z,36.54
2017-12-26T10:29:55.928Z,34.93
2017-12-26T10:30:56.004Z,36.65
2017-12-26T10:31:55.744Z,36.19
2017-12-26T10:32:56.002Z,34.39
2017-12-26T10:33:56.050Z,32.28
2017-12-26T10:34:56.054Z,32.09
2017-12-26T10:35:56.080Z,31.13
2017-12-26T10:36:56.106Z,32.28
2017-12-26T10:37:55.879Z,32.39
2017-12-26T10:38:55.916Z,30.4
2017-12-26T10:39:56.185Z,30.78
2017-12-26T10:40:56.222Z,29.82
2017-12-26T10:41:55.985Z,30.01
2017-12-26T10:42:56.012Z,30.89
2017-12-26T10:43:56.294Z,30.99
2017-12-26T10:44:56.065Z,29.27
2017-12-26T10:45:56.143Z,28.03
2017-12-26T10:46:56.392Z,28.11
2017-12-26T10:47:56.402Z,28.68
2017-12-26T10:48:56.427Z,28.3
2017-12-26T10:49:56.540Z,28.3
2017-12-26T10:50:56.481Z,29.93
2017-12-26T10:51:56.508Z,27.92
2017-12-26T10:52:56.280Z,28.39
2017-12-26T10:53:56.307Z,27.92
2017-12-26T10:54:56.621Z,28.48
2017-12-26T10:55:56.366Z,29.64
2017-12-26T10:56:56.387Z,30.51
2017-12-26T10:57:56.409Z,28.11
2017-12-26T10:58:56.693Z,29.74
2017-12-26T10:59:56.718Z,28.3
2017-12-26T11:00:56.541Z,28.11
2017-12-26T11:01:56.773Z,30.02
2017-12-26T11:02:56.548Z,30.22
2017-12-26T11:03:56.823Z,29.83
2017-12-26T11:04:56.855Z,29.06
2017-12-26T11:05:56.877Z,29.35
2017-12-26T11:06:56.650Z,28.78
2017-12-26T11:07:56.678Z,28.59
2017-12-26T11:08:56.957Z,29.26
2017-12-26T11:09:56.982Z,28.3
2017-12-26T11:10:57.009Z,27.92
2017-12-26T11:11:56.782Z,28.03
2017-12-26T11:12:57.066Z,28.89
2017-12-26T11:13:57.091Z,29.17
2017-12-26T11:14:56.864Z,27.45
2017-12-26T11:15:56.942Z,27.47
2017-12-26T11:16:57.171Z,27.84
2017-12-26T11:17:56.943Z,26.5
2017-12-26T11:18:56.973Z,25.73
2017-12-26T11:19:57.253Z,26.21
2017-12-26T11:20:57.281Z,25.35
2017-12-26T11:21:57.055Z,26.89
2017-12-26T11:22:57.336Z,26.23
2017-12-26T11:23:57.371Z,26.61
2017-12-26T11:24:57.392Z,26.72
2017-12-26T11:25:57.419Z,26.53
2017-12-26T11:26:57.194Z,24.51
2017-12-26T11:27:57.478Z,23.94
2017-12-26T11:28:57.252Z,24.33
2017-12-26T11:29:57.536Z,23.37
2017-12-26T11:30:57.611Z,22.61
2017-12-26T11:31:57.595Z,22.89
2017-12-26T11:32:57.365Z,23.65
2017-12-26T11:33:57.396Z,23.37
2017-12-26T11:34:57.683Z,22.61
2017-12-26T11:35:57.709Z,21.55
2017-12-26T11:36:57.488Z,22.32
2017-12-26T11:37:57.768Z,21.45
2017-12-26T11:38:57.801Z,22.13
2017-12-26T11:39:57.575Z,21.55
2017-12-26T11:40:57.863Z,21.36
2017-12-26T11:41:57.637Z,22.52
2017-12-26T11:42:57.935Z,21.18
2017-12-26T11:43:57.960Z,20.89
2017-12-26T11:44:57.731Z,21.26
2017-12-26T11:45:57.808Z,21.45
2017-12-26T11:46:58.042Z,21.45
2017-12-26T11:47:57.822Z,20.88
2017-12-26T11:48:58.107Z,20.5
2017-12-26T11:49:57.884Z,20.78
2017-12-26T11:50:57.913Z,21.06
2017-12-26T11:51:58.227Z,20.88
2017-12-26T11:52:58.229Z,20.97
2017-12-26T11:53:58.262Z,21.44
2017-12-26T11:54:58.035Z,21.24
2017-12-26T11:55:58.066Z,21.15
2017-12-26T11:56:58.352Z,21.44
2017-12-26T11:57:58.381Z,22.49
2017-12-26T11:58:58.414Z,21.06
2017-12-26T11:59:58.189Z,21.25
2017-12-26T12:00:58.523Z,20.58
2017-12-26T12:01:58.505Z,21.06
2017-12-26T12:02:58.534Z,21.15
2017-12-26T12:03:58.312Z,21.82
2017-12-26T12:04:58.344Z,21.62
2017-12-26T12:05:58.630Z,21.64
2017-12-26T12:06:58.669Z,20.88
2017-12-26T12:07:58.437Z,19.73
2017-12-26T12:08:58.719Z,19.83
2017-12-26T12:09:58.749Z,20.12
2017-12-26T12:10:58.780Z,20.7
2017-12-26T12:11:58.812Z,19.75
2017-12-26T12:12:58.842Z,19.18
2017-12-26T12:13:58.871Z,19.55
2017-12-26T12:14:58.905Z,19.74
2017-12-26T12:15:58.985Z,19.65
2017-12-26T12:16:59.014Z,20.97
2017-12-26T12:17:58.743Z,21.83
2017-12-26T12:18:59.048Z,22.3
2017-12-26T12:19:59.066Z,22.2
2017-12-26T12:20:59.094Z,22.2
2017-12-26T12:21:58.873Z,22.59
2017-12-26T12:22:59.155Z,22.41
2017-12-26T12:23:59.184Z,21.94
2017-12-26T12:24:58.963Z,21.26
2017-12-26T12:25:59.244Z,20.6
2017-12-26T12:26:59.024Z,20.51
2017-12-26T12:27:59.053Z,21.17
2017-12-26T12:28:59.086Z,21.45
2017-12-26T12:29:59.368Z,22.22
2017-12-26T12:30:59.147Z,22.41
2017-12-26T12:31:59.431Z,21.65
2017-12-26T12:32:59.462Z,21.27
2017-12-26T12:33:59.495Z,21.3
2017-12-26T12:34:59.623Z,20.43
2017-12-26T12:35:59.555Z,19.57
2017-12-26T12:36:59.338Z,20.43
2017-12-26T12:37:59.619Z,20.62
2017-12-26T12:38:59.649Z,19.77
2017-12-26T12:39:59.428Z,20.15
2017-12-26T12:40:59.712Z,20.62
2017-12-26T12:41:59.748Z,20.91
2017-12-26T12:42:59.520Z,20.9
2017-12-26T12:43:59.552Z,21.48
2017-12-26T12:44:59.838Z,22.05
2017-12-26T12:45:59.616Z,22.42
2017-12-26T12:46:59.903Z,22.99
2017-12-26T12:47:59.675Z,23.19
2017-12-26T12:48:59.978Z,22.8
2017-12-26T12:50:00.041Z,23.09
2017-12-26T12:51:00.026Z,23.56
2017-12-26T12:52:00.078Z,24.32
2017-12-26T12:52:59.830Z,24.51
2017-12-26T12:54:00.118Z,24.7
2017-12-26T12:54:59.890Z,24.51
2017-12-26T12:56:00.180Z,24.43